Time;durP1;ratioP1;P1;durP2;ratioP2;P2;SDS_P1;SDS_P2;PMS_P1;PMS_P2;Temp;Humidity;BMP_temperature;BMP_pressure;BME280_temperature;BME280_humidity;BME280_pressure;Samples;Min_cycle;Max_cycle;Signal;HPM_P1;HPM_P2
2022/07/01 00:01:46;;;;;;;;;30.67;30.00;32.50;39.90;;;;;;5077096;28;8859;-64
2022/07/01 00:04:12;;;;;;;;;30.00;29.00;32.30;40.10;;;;;;5077230;28;8897;-65
2022/07/01 00:06:38;;;;;;;;;39.00;30.67;32.30;40.20;;;;;;5077222;28;8929;-66
2022/07/01 00:09:07;;;;;;;;;28.33;28.33;32.50;40.20;;;;;;5076849;28;8775;-66
2022/07/01 00:11:33;;;;;;;;;28.33;28.33;32.50;40.00;;;;;;5076126;28;8779;-66
2022/07/01 00:13:58;;;;;;;;;29.33;27.67;32.60;40.00;;;;;;5076096;28;8775;-65
2022/07/01 00:16:24;;;;;;;;;27.33;27.33;32.50;40.00;;;;;;5076458;28;8798;-66
2022/07/01 00:18:50;;;;;;;;;26.00;26.00;31.80;41.30;;;;;;5076559;28;8752;-65
2022/07/01 00:21:16;;;;;;;;;33.00;30.00;31.50;42.20;;;;;;5075360;28;8856;-66
2022/07/01 00:23:42;;;;;;;;;31.67;30.33;31.50;42.20;;;;;;5076714;28;8771;-66
2022/07/01 00:26:08;;;;;;;;;28.33;28.33;31.70;41.90;;;;;;5076826;28;8871;-66
2022/07/01 00:28:34;;;;;;;;;28.33;27.00;31.90;41.90;;;;;;5076769;28;8814;-66
2022/07/01 00:30:59;;;;;;;;;29.00;27.00;31.80;41.50;;;;;;5075649;28;9467;-65
2022/07/01 00:33:25;;;;;;;;;33.00;31.67;31.70;41.90;;;;;;5076537;28;8802;-66
2022/07/01 00:35:52;;;;;;;;;33.67;32.00;31.60;42.20;;;;;;5067550;28;8816;-66
2022/07/01 00:38:18;;;;;;;;;36.33;33.00;31.70;42.10;;;;;;5062970;28;8871;-66
2022/07/01 00:40:43;;;;;;;;;37.33;34.33;31.80;41.90;;;;;;5076276;28;8810;-65
2022/07/01 00:43:09;;;;;;;;;39.00;33.00;31.90;41.90;;;;;;5076336;28;8786;-66
2022/07/01 00:45:35;;;;;;;;;36.33;32.00;31.90;41.90;;;;;;5076536;28;8775;-66
2022/07/01 00:48:01;;;;;;;;;37.33;32.67;31.90;41.80;;;;;;5056416;28;8804;-65
2022/07/01 00:50:27;;;;;;;;;36.67;32.67;32.10;42.00;;;;;;5056223;28;8789;-66
2022/07/01 00:52:53;;;;;;;;;36.67;32.00;32.10;41.40;;;;;;5056185;28;8766;-65
2022/07/01 00:55:19;;;;;;;;;39.00;33.00;32.10;41.60;;;;;;5056031;28;8797;-65
2022/07/01 00:57:45;;;;;;;;;40.00;32.33;32.10;41.50;;;;;;5058154;28;8789;-66
2022/07/01 01:00:26;;;;;;;;;38.67;34.00;32.10;41.80;;;;;;5076056;28;8873;-66
2022/07/01 01:02:52;;;;;;;;;31.00;29.67;32.30;41.90;;;;;;5076188;28;8844;-65
2022/07/01 01:05:20;;;;;;;;;31.33;30.00;32.30;42.20;;;;;;5075855;28;8768;-67
2022/07/01 01:07:47;;;;;;;;;34.00;32.00;32.40;41.90;;;;;;5075903;28;8889;-67
2022/07/01 01:10:14;;;;;;;;;38.67;34.67;32.40;41.60;;;;;;5075972;28;8771;-67
2022/07/01 01:12:40;;;;;;;;;36.00;32.33;32.40;41.60;;;;;;5075888;28;8871;-68
2022/07/01 01:15:08;;;;;;;;;37.00;33.00;32.30;41.80;;;;;;5075817;28;9528;-65
2022/07/01 01:17:34;;;;;;;;;32.00;30.33;32.30;41.70;;;;;;5076006;28;9447;-64
2022/07/01 01:20:00;;;;;;;;;30.00;28.33;32.30;42.00;;;;;;5075425;28;8791;-68
2022/07/01 01:22:26;;;;;;;;;35.33;31.67;32.20;41.90;;;;;;5075612;28;8783;-65
2022/07/01 01:24:52;;;;;;;;;37.67;34.67;32.30;41.70;;;;;;5075852;28;8771;-65
2022/07/01 01:27:18;;;;;;;;;35.00;31.33;32.30;42.00;;;;;;5075737;28;8786;-65
2022/07/01 01:29:44;;;;;;;;;31.00;29.33;32.20;41.60;;;;;;5075347;28;8795;-66
2022/07/01 01:32:10;;;;;;;;;28.33;28.33;32.20;41.70;;;;;;5075043;28;8801;-66
2022/07/01 01:34:38;;;;;;;;;29.67;27.33;32.20;41.90;;;;;;5074611;28;8771;-66
2022/07/01 01:37:05;;;;;;;;;29.00;29.00;32.20;41.90;;;;;;5055623;28;8770;-66
2022/07/01 01:39:31;;;;;;;;;33.00;30.33;32.20;41.80;;;;;;5055216;28;8801;-66
2022/07/01 01:41:57;;;;;;;;;28.33;27.67;32.30;42.00;;;;;;5055199;28;8753;-66
2022/07/01 01:44:22;;;;;;;;;29.33;28.33;32.30;42.20;;;;;;5055458;28;8880;-66
2022/07/01 01:46:48;;;;;;;;;35.00;33.00;32.30;41.90;;;;;;5055225;28;8773;-66
2022/07/01 01:49:14;;;;;;;;;33.00;31.00;32.20;42.10;;;;;;5055030;28;8801;-67
2022/07/01 01:51:40;;;;;;;;;35.33;32.67;32.20;42.40;;;;;;5055016;28;8847;-66
2022/07/01 01:54:06;;;;;;;;;39.33;33.67;32.20;42.20;;;;;;5054941;28;8867;-66
2022/07/01 01:56:32;;;;;;;;;37.33;33.33;32.10;42.20;;;;;;5066600;28;8787;-67
2022/07/01 01:58:59;;;;;;;;;42.33;37.33;32.20;42.30;;;;;;5069594;28;8778;-67
2022/07/01 02:01:25;;;;;;;;;37.67;34.33;32.10;42.30;;;;;;5063064;28;8908;-66
2022/07/01 02:03:52;;;;;;;;;34.67;32.33;32.10;42.30;;;;;;5054708;28;8793;-66
2022/07/01 02:06:19;;;;;;;;;35.67;32.67;32.00;42.50;;;;;;5054940;28;8801;-66
2022/07/01 02:08:45;;;;;;;;;38.33;35.00;32.00;42.70;;;;;;5054656;28;8773;-66
2022/07/01 02:11:12;;;;;;;;;39.67;35.00;32.00;42.80;;;;;;5054727;28;8885;-66
2022/07/01 02:13:38;;;;;;;;;32.33;31.00;31.80;43.20;;;;;;5055006;28;8780;-66
2022/07/01 02:16:04;;;;;;;;;35.67;33.33;31.80;43.50;;;;;;5054232;28;8850;-66
2022/07/01 02:18:32;;;;;;;;;29.00;28.33;31.90;43.40;;;;;;5054115;28;8768;-66
2022/07/01 02:20:59;;;;;;;;;36.00;32.33;31.80;43.50;;;;;;5054459;28;8817;-66
2022/07/01 02:23:25;;;;;;;;;40.00;36.00;31.80;43.50;;;;;;5054754;28;8770;-66
2022/07/01 02:25:52;;;;;;;;;30.00;29.67;31.80;43.40;;;;;;5054535;28;8804;-67
2022/07/01 02:28:17;;;;;;;;;36.00;32.00;31.80;43.60;;;;;;5054720;28;8773;-66
2022/07/01 02:30:43;;;;;;;;;37.00;33.33;31.80;44.20;;;;;;5054295;28;8863;-66
2022/07/01 02:33:10;;;;;;;;;35.67;32.00;31.80;44.40;;;;;;5054348;28;8883;-66
2022/07/01 02:35:37;;;;;;;;;33.67;31.67;31.60;45.10;;;;;;5054351;28;8778;-66
2022/07/01 02:38:05;;;;;;;;;36.67;33.00;31.70;44.80;;;;;;5054487;28;9423;-67
2022/07/01 02:40:33;;;;;;;;;36.00;33.00;31.60;44.00;;;;;;5054386;28;8813;-66
2022/07/01 02:42:58;;;;;;;;;35.67;33.00;31.50;44.20;;;;;;5053680;28;8836;-66
2022/07/01 02:45:27;;;;;;;;;38.00;33.33;31.50;44.00;;;;;;5054185;28;8789;-66
2022/07/01 02:47:52;;;;;;;;;37.00;32.67;31.20;44.50;;;;;;5054184;28;8804;-66
2022/07/01 02:50:19;;;;;;;;;37.67;34.67;31.00;45.10;;;;;;5054178;28;8925;-66
2022/07/01 02:52:45;;;;;;;;;41.00;35.33;31.10;45.00;;;;;;5054080;28;8773;-66
2022/07/01 02:55:13;;;;;;;;;36.67;33.00;31.20;45.10;;;;;;5054410;28;9545;-66
2022/07/01 02:57:42;;;;;;;;;41.00;36.00;31.20;44.80;;;;;;5054319;28;9451;-66
2022/07/01 03:00:13;;;;;;;;;41.67;35.00;31.30;44.60;;;;;;5054076;28;8825;-66
2022/07/01 03:02:40;;;;;;;;;37.67;33.00;31.30;44.70;;;;;;5054267;28;9447;-66
2022/07/01 03:05:06;;;;;;;;;36.67;33.00;31.10;44.70;;;;;;5053958;28;8761;-66
2022/07/01 03:07:34;;;;;;;;;39.00;34.67;31.20;44.70;;;;;;5053895;28;8804;-66
2022/07/01 03:10:01;;;;;;;;;37.67;32.00;31.10;44.70;;;;;;5053964;28;8845;-66
2022/07/01 03:12:30;;;;;;;;;32.33;31.33;31.20;44.80;;;;;;5053967;28;8893;-66
2022/07/01 03:14:58;;;;;;;;;35.67;32.00;31.20;44.90;;;;;;5053755;28;8800;-66
2022/07/01 03:17:26;;;;;;;;;35.67;33.00;31.20;44.80;;;;;;5053959;28;8778;-66
2022/07/01 03:19:53;;;;;;;;;35.33;33.00;31.10;44.80;;;;;;5053702;28;8817;-66
2022/07/01 03:22:22;;;;;;;;;37.33;33.00;31.20;44.90;;;;;;5053826;28;8912;-66
2022/07/01 03:24:48;;;;;;;;;35.33;32.67;31.30;44.80;;;;;;5053865;28;8859;-66
2022/07/01 03:27:15;;;;;;;;;38.33;34.33;31.30;44.60;;;;;;5053814;28;8885;-66
2022/07/01 03:29:41;;;;;;;;;39.67;35.00;31.30;44.80;;;;;;5068753;28;8803;-66
2022/07/01 03:32:11;;;;;;;;;35.00;32.33;31.30;44.70;;;;;;5061892;28;8821;-67
2022/07/01 03:34:42;;;;;;;;;36.00;33.00;31.30;44.90;;;;;;5054063;28;8777;-66
2022/07/01 03:37:09;;;;;;;;;34.33;32.33;31.30;44.90;;;;;;5053665;28;8793;-66
2022/07/01 03:39:36;;;;;;;;;32.33;31.00;31.20;44.90;;;;;;5066452;28;8799;-66
2022/07/01 03:42:03;;;;;;;;;34.33;32.00;31.20;44.90;;;;;;5073772;28;8771;-66
2022/07/01 03:44:29;;;;;;;;;31.00;30.67;31.10;44.80;;;;;;5073982;28;9506;-66
2022/07/01 03:46:55;;;;;;;;;34.00;31.33;31.20;45.00;;;;;;5073936;28;8759;-66
2022/07/01 03:49:22;;;;;;;;;39.00;35.00;31.20;45.10;;;;;;5073935;28;9435;-66
2022/07/01 03:51:49;;;;;;;;;30.67;30.00;31.20;44.80;;;;;;5073622;28;8767;-66
2022/07/01 03:54:30;;;;;;;;;38.67;33.00;31.30;45.00;;;;;;5074633;28;9452;-66
2022/07/01 03:57:01;;;;;;;;;36.00;32.67;31.40;44.60;;;;;;5077520;28;8783;-66
2022/07/01 03:59:28;;;;;;;;;37.00;33.00;31.30;44.60;;;;;;5077104;28;8861;-66
2022/07/01 04:01:58;;;;;;;;;38.67;35.00;31.40;44.70;;;;;;5074285;28;8755;-66
2022/07/01 04:04:25;;;;;;;;;37.33;33.33;31.40;45.00;;;;;;5056930;28;8858;-66
2022/07/01 04:06:52;;;;;;;;;36.00;33.00;31.40;44.90;;;;;;5057006;28;8778;-66
2022/07/01 04:09:19;;;;;;;;;32.67;30.67;31.40;44.80;;;;;;5056864;28;8780;-66
2022/07/01 04:11:47;;;;;;;;;35.33;32.67;31.40;44.50;;;;;;5057078;28;8793;-66
2022/07/01 04:14:13;;;;;;;;;31.67;31.00;31.40;44.80;;;;;;5056873;28;9608;-66
2022/07/01 04:16:39;;;;;;;;;30.00;30.00;31.30;44.90;;;;;;5057079;28;8789;-66
2022/07/01 04:19:05;;;;;;;;;37.67;34.00;30.40;46.30;;;;;;5056563;28;8778;-66
2022/07/01 04:24:15;;;;;;;;;33.67;32.00;30.70;46.30;;;;;;5056694;28;8758;-66
2022/07/01 04:26:42;;;;;;;;;34.67;31.33;30.90;45.70;;;;;;5056416;28;8808;-66
2022/07/01 04:29:09;;;;;;;;;38.33;33.67;31.10;45.40;;;;;;5056245;28;8782;-66
2022/07/01 04:31:38;;;;;;;;;37.00;33.67;31.20;45.40;;;;;;5056394;28;8802;-66
2022/07/01 04:34:06;;;;;;;;;41.00;35.00;31.20;45.20;;;;;;5056787;28;8765;-66
2022/07/01 04:36:32;;;;;;;;;38.00;33.00;31.20;44.90;;;;;;5056359;28;8781;-66
2022/07/01 04:38:58;;;;;;;;;35.00;32.67;31.30;45.00;;;;;;5061407;28;8783;-66
2022/07/01 04:44:08;;;;;;;;;32.00;30.33;31.40;44.80;;;;;;5076467;28;8764;-66
2022/07/01 04:46:35;;;;;;;;;47.00;40.00;31.30;45.00;;;;;;5076256;28;8848;-66
2022/07/01 04:49:00;;;;;;;;;44.00;37.67;31.30;46.20;;;;;;5076359;28;8767;-67
2022/07/01 04:51:26;;;;;;;;;39.00;34.00;31.20;47.50;;;;;;5076557;28;8787;-67
2022/07/01 04:53:52;;;;;;;;;33.33;32.00;31.10;47.70;;;;;;5064607;28;9415;-68
2022/07/01 04:56:18;;;;;;;;;37.00;33.00;31.20;47.40;;;;;;5067661;28;8904;-65
2022/07/01 04:58:44;;;;;;;;;41.33;34.67;31.20;47.20;;;;;;5061531;28;9499;-65
2022/07/01 05:01:10;;;;;;;;;39.00;33.00;31.20;47.40;;;;;;5076181;28;8834;-65
2022/07/01 05:03:36;;;;;;;;;36.33;33.00;31.10;47.50;;;;;;5058627;28;8794;-65
2022/07/01 05:06:02;;;;;;;;;38.33;33.67;31.20;47.30;;;;;;5055220;28;9439;-65
2022/07/01 05:08:28;;;;;;;;;40.67;34.67;31.20;47.00;;;;;;5058595;28;9451;-65
2022/07/01 05:10:54;;;;;;;;;41.00;36.00;31.20;46.70;;;;;;5075771;28;8783;-65
2022/07/01 05:13:20;;;;;;;;;38.67;33.67;31.20;46.60;;;;;;5075993;28;8801;-65
2022/07/01 05:15:45;;;;;;;;;34.00;32.33;31.10;47.00;;;;;;5075697;28;9468;-65
2022/07/01 05:23:39;;;;;;;;;38.00;34.33;31.40;46.00;;;;;;5075671;28;8899;-65
2022/07/01 05:26:05;;;;;;;;;36.00;33.00;31.50;45.50;;;;;;5075695;28;9020;-65
2022/07/01 05:28:31;;;;;;;;;33.00;30.00;31.60;44.60;;;;;;5075729;28;8759;-65
2022/07/01 05:30:57;;;;;;;;;37.00;33.00;31.70;44.20;;;;;;5075273;28;8863;-65
2022/07/01 05:33:26;;;;;;;;;38.67;33.33;31.60;44.20;;;;;;5075526;28;8845;-65
2022/07/01 05:35:53;;;;;;;;;36.33;32.67;31.60;44.40;;;;;;5075176;28;8779;-65
2022/07/01 05:38:19;;;;;;;;;36.67;33.00;31.80;44.60;;;;;;5075445;28;9475;-65
2022/07/01 05:40:44;;;;;;;;;39.00;32.67;31.90;44.40;;;;;;5075139;28;8868;-65
2022/07/01 05:43:10;;;;;;;;;39.67;35.00;32.00;44.40;;;;;;5075134;28;8873;-65
2022/07/01 05:45:36;;;;;;;;;37.00;33.00;32.00;44.00;;;;;;5075054;28;8771;-65
2022/07/01 05:48:01;;;;;;;;;38.67;34.33;32.00;44.20;;;;;;5075078;28;8760;-65
2022/07/01 05:50:27;;;;;;;;;35.67;32.00;32.10;44.00;;;;;;5075040;28;8779;-65
2022/07/01 05:52:53;;;;;;;;;44.00;36.00;32.10;44.20;;;;;;5074501;28;8790;-65
2022/07/01 05:55:19;;;;;;;;;45.00;37.00;32.20;44.20;;;;;;5061679;28;8807;-65
2022/07/01 05:57:45;;;;;;;;;39.33;35.00;32.20;44.60;;;;;;5075029;28;8759;-65
2022/07/01 06:00:11;;;;;;;;;45.00;39.00;32.30;44.90;;;;;;5056921;28;9527;-65
2022/07/01 06:02:37;;;;;;;;;48.33;40.00;32.10;45.30;;;;;;5073939;28;8806;-65
2022/07/01 06:05:03;;;;;;;;;48.00;41.00;31.90;45.80;;;;;;5062263;28;8794;-65
2022/07/01 06:07:29;;;;;;;;;26.67;24.00;32.00;45.70;;;;;;5054698;28;8921;-65
2022/07/01 06:09:56;;;;;;;;;47.00;40.00;32.20;45.80;;;;;;5054603;28;8892;-65
2022/07/01 06:12:21;;;;;;;;;49.67;41.00;32.30;45.30;;;;;;5054768;28;8750;-65
2022/07/01 06:14:48;;;;;;;;;46.33;38.67;32.40;45.00;;;;;;5054694;28;8777;-65
2022/07/01 06:17:14;;;;;;;;;50.00;41.33;32.40;44.40;;;;;;5054610;28;8769;-65
2022/07/01 06:19:40;;;;;;;;;48.00;41.00;32.50;44.20;;;;;;5054444;28;8856;-65
2022/07/01 06:22:06;;;;;;;;;49.33;40.00;32.50;44.30;;;;;;5054519;28;9426;-65
2022/07/01 06:24:33;;;;;;;;;47.00;40.00;32.60;44.30;;;;;;5054448;28;9280;-65
2022/07/01 06:26:59;;;;;;;;;43.00;37.33;32.50;43.90;;;;;;5072141;28;8799;-65
2022/07/01 06:29:27;;;;;;;;;43.67;37.67;32.70;43.60;;;;;;5073306;28;8819;-66
2022/07/01 06:31:53;;;;;;;;;47.00;38.00;32.20;43.60;;;;;;5074631;28;9760;-65
2022/07/01 06:34:20;;;;;;;;;40.33;36.00;32.40;44.00;;;;;;5074205;28;8815;-66
2022/07/01 06:36:45;;;;;;;;;39.67;35.67;32.10;44.70;;;;;;5066706;28;8888;-64
2022/07/01 06:39:11;;;;;;;;;36.33;32.67;32.30;44.60;;;;;;5054183;28;8911;-65
2022/07/01 06:41:37;;;;;;;;;45.00;37.33;32.60;44.30;;;;;;5054009;28;8778;-64
2022/07/01 06:44:04;;;;;;;;;42.67;37.67;32.70;43.90;;;;;;5054348;28;9051;-66
2022/07/01 06:46:31;;;;;;;;;13.33;12.33;32.50;44.00;;;;;;5054108;28;8774;-66
2022/07/01 06:48:58;;;;;;;;;43.00;37.00;32.60;43.50;;;;;;5054009;28;8750;-66
2022/07/01 06:51:24;;;;;;;;;38.67;34.00;32.90;43.30;;;;;;5054365;28;8761;-67
2022/07/01 06:53:50;;;;;;;;;40.33;35.67;32.90;43.20;;;;;;5054105;28;8851;-66
2022/07/01 06:56:17;;;;;;;;;39.67;35.67;32.90;43.10;;;;;;5054112;28;8774;-66
2022/07/01 06:58:43;;;;;;;;;38.67;34.00;32.90;42.40;;;;;;5053977;28;8758;-65
2022/07/01 07:01:09;;;;;;;;;36.00;33.00;32.90;41.70;;;;;;5060479;28;8861;-62
2022/07/01 07:03:35;;;;;;;;;42.33;36.67;33.00;41.60;;;;;;5065223;28;8791;-63
2022/07/01 07:06:02;;;;;;;;;37.67;34.67;33.10;41.60;;;;;;5066037;28;8791;-62
2022/07/01 07:08:32;;;;;;;;;38.00;33.33;33.20;41.20;;;;;;5059170;28;8790;-63
2022/07/01 07:10:59;;;;;;;;;39.00;35.00;32.90;41.10;;;;;;5073785;28;8763;-63
2022/07/01 07:13:25;;;;;;;;;38.33;34.67;33.00;40.40;;;;;;5066763;28;8798;-63
2022/07/01 07:15:50;;;;;;;;;36.00;32.00;33.10;39.80;;;;;;5053882;28;8770;-62
2022/07/01 07:18:16;;;;;;;;;27.33;26.33;33.30;39.60;;;;;;5063623;28;8791;-60
2022/07/01 07:20:42;;;;;;;;;30.33;29.67;32.90;39.20;;;;;;5061942;28;8806;-61
2022/07/01 07:23:09;;;;;;;;;35.00;32.00;32.90;39.40;;;;;;5065210;28;8793;-62
2022/07/01 07:25:35;;;;;;;;;30.33;29.33;33.10;39.70;;;;;;5067283;28;8894;-61
2022/07/01 07:28:01;;;;;;;;;33.00;30.33;33.40;38.60;;;;;;5066989;28;8880;-63
2022/07/01 07:30:26;;;;;;;;;30.67;30.00;33.50;38.40;;;;;;5064774;28;8823;-61
2022/07/01 07:32:52;;;;;;;;;32.33;30.00;33.50;37.90;;;;;;5071878;28;8877;-61
2022/07/01 07:35:18;;;;;;;;;34.00;31.00;33.50;37.70;;;;;;5065652;28;8766;-66
2022/07/01 07:37:45;;;;;;;;;28.00;28.00;33.60;37.50;;;;;;5066329;28;9033;-66
2022/07/01 07:40:13;;;;;;;;;32.67;31.67;33.60;37.50;;;;;;5067333;28;9491;-65
2022/07/01 07:42:40;;;;;;;;;35.67;30.33;33.70;37.50;;;;;;5065974;28;8782;-66
2022/07/01 07:45:07;;;;;;;;;36.00;32.00;33.90;37.60;;;;;;5065588;28;8783;-66
2022/07/01 07:47:36;;;;;;;;;30.33;30.00;33.30;38.20;;;;;;5067236;28;8770;-66
2022/07/01 07:50:03;;;;;;;;;31.33;29.00;33.60;38.30;;;;;;5072229;28;8767;-66
2022/07/01 07:52:29;;;;;;;;;34.33;31.33;33.70;38.30;;;;;;5077213;28;8806;-65
2022/07/01 07:54:55;;;;;;;;;29.67;29.67;33.80;37.70;;;;;;5077248;28;8794;-66
2022/07/01 07:57:21;;;;;;;;;31.33;30.33;33.80;36.70;;;;;;5077055;28;8771;-66
2022/07/01 07:59:47;;;;;;;;;29.67;29.00;33.90;37.00;;;;;;5077264;28;8822;-66
2022/07/01 08:02:14;;;;;;;;;34.00;31.67;34.00;37.50;;;;;;5076327;28;8795;-66
2022/07/01 08:04:39;;;;;;;;;32.00;30.33;34.00;36.60;;;;;;5077154;28;8909;-67
2022/07/01 08:07:05;;;;;;;;;34.00;30.00;34.10;36.60;;;;;;5076448;28;8866;-66
2022/07/01 08:09:34;;;;;;;;;33.67;32.00;34.10;37.00;;;;;;5077138;28;8767;-66
2022/07/01 08:12:04;;;;;;;;;31.67;30.33;33.80;37.60;;;;;;5077120;28;8794;-67
2022/07/01 08:14:30;;;;;;;;;33.33;31.00;33.80;38.10;;;;;;5076971;28;9484;-65
2022/07/01 08:16:56;;;;;;;;;31.67;30.67;34.00;37.30;;;;;;5076936;28;8771;-65
2022/07/01 08:19:22;;;;;;;;;34.67;31.33;34.30;36.30;;;;;;5076664;28;8901;-65
2022/07/01 08:21:48;;;;;;;;;31.00;29.67;34.50;36.30;;;;;;5077014;28;8873;-67
2022/07/01 08:24:14;;;;;;;;;30.67;29.33;34.50;36.00;;;;;;5076756;28;8775;-67
2022/07/01 08:26:39;;;;;;;;;26.00;26.00;34.60;36.10;;;;;;5072004;28;8790;-64
2022/07/01 08:29:05;;;;;;;;;30.67;29.67;34.80;35.60;;;;;;5070973;28;8864;-65
2022/07/01 08:31:31;;;;;;;;;34.33;32.00;35.00;35.50;;;;;;5064129;28;8812;-66
2022/07/01 08:33:57;;;;;;;;;32.00;30.33;35.00;35.10;;;;;;5065150;28;8865;-66
2022/07/01 08:36:23;;;;;;;;;30.00;29.67;35.00;34.80;;;;;;5066377;28;9459;-66
2022/07/01 08:38:49;;;;;;;;;35.00;32.00;35.00;35.10;;;;;;5064234;28;8807;-66
2022/07/01 08:41:17;;;;;;;;;32.00;30.00;35.00;34.70;;;;;;5074863;28;8803;-66
2022/07/01 08:43:43;;;;;;;;;37.67;33.00;34.90;34.70;;;;;;5076358;28;8759;-64
2022/07/01 08:46:08;;;;;;;;;29.33;29.33;35.00;35.10;;;;;;5075999;28;8803;-71
2022/07/01 08:48:35;;;;;;;;;32.00;31.00;35.20;35.20;;;;;;5076045;28;8875;-67
2022/07/01 08:51:04;;;;;;;;;28.00;27.00;34.90;34.30;;;;;;5075910;28;8798;-67
2022/07/01 08:53:31;;;;;;;;;28.00;28.00;34.70;34.50;;;;;;5075939;28;8795;-66
2022/07/01 08:58:41;;;;;;;;;28.33;27.33;34.40;34.10;;;;;;5075989;28;8755;-67
2022/07/01 09:01:14;;;;;;;;;29.67;27.00;34.60;34.60;;;;;;5073193;28;8868;-66
2022/07/01 09:03:42;;;;;;;;;31.00;27.67;34.80;34.00;;;;;;5056074;28;8762;-67
2022/07/01 09:06:16;;;;;;;;;26.33;26.33;35.10;33.60;;;;;;5055906;28;8761;-68
2022/07/01 09:08:43;;;;;;;;;27.67;27.67;35.20;32.40;;;;;;5056254;28;8789;-67
2022/07/01 09:11:15;;;;;;;;;27.67;27.67;35.30;32.50;;;;;;5056001;28;9458;-67
2022/07/01 09:13:42;;;;;;;;;28.00;27.67;35.40;32.20;;;;;;5055957;28;8781;-67
2022/07/01 09:16:16;;;;;;;;;26.00;24.33;35.40;32.80;;;;;;5055647;28;8778;-68
2022/07/01 09:19:03;;;;;;;;;25.67;24.00;35.50;31.70;;;;;;5056012;28;8754;-68
2022/07/01 09:21:30;;;;;;;;;25.67;25.67;35.60;31.50;;;;;;5055509;28;8798;-68
2022/07/01 09:23:58;;;;;;;;;28.00;27.00;35.80;30.70;;;;;;5055754;28;11525;-68
2022/07/01 09:26:26;;;;;;;;;24.67;23.67;35.70;30.00;;;;;;5056981;28;8834;-67
2022/07/01 09:28:56;;;;;;;;;24.00;24.00;35.70;31.20;;;;;;5067266;28;11504;-67
2022/07/01 09:31:31;;;;;;;;;28.67;27.00;35.50;31.80;;;;;;5067923;28;8840;-67
2022/07/01 09:34:05;;;;;;;;;29.67;27.67;35.50;32.00;;;;;;5069209;28;8806;-66
2022/07/01 09:36:31;;;;;;;;;24.00;24.00;35.70;31.40;;;;;;5068706;28;8859;-67
2022/07/01 09:39:01;;;;;;;;;23.67;22.33;35.80;31.90;;;;;;5067214;28;11494;-66
2022/07/01 09:41:34;;;;;;;;;27.67;27.67;36.00;31.50;;;;;;5047404;28;8809;-67
2022/07/01 09:44:07;;;;;;;;;24.67;24.67;35.90;31.20;;;;;;5068522;28;8792;-66
2022/07/01 09:46:33;;;;;;;;;28.00;28.00;36.20;30.90;;;;;;5062633;28;11512;-66
2022/07/01 09:49:00;;;;;;;;;24.33;24.33;36.10;30.60;;;;;;5064659;28;8799;-66
2022/07/01 09:51:26;;;;;;;;;22.67;20.67;36.20;30.50;;;;;;5065470;28;8763;-66
2022/07/01 09:53:52;;;;;;;;;19.00;19.00;36.40;30.60;;;;;;5066315;28;11495;-65
2022/07/01 09:56:19;;;;;;;;;22.33;22.33;36.40;29.90;;;;;;5062572;28;8886;-67
2022/07/01 09:58:45;;;;;;;;;21.67;21.67;36.40;29.60;;;;;;5068685;28;9443;-66
2022/07/01 10:01:14;;;;;;;;;22.67;22.67;36.40;29.70;;;;;;5062068;28;12241;-66
2022/07/01 10:03:41;;;;;;;;;16.00;16.00;36.50;29.80;;;;;;5064518;28;11530;-66
2022/07/01 10:06:07;;;;;;;;;23.00;22.33;36.50;29.60;;;;;;5059396;28;11603;-69
2022/07/01 10:09:02;;;;;;;;;25.33;25.33;36.50;30.10;;;;;;5062445;28;8787;-67
2022/07/01 10:11:34;;;;;;;;;27.33;26.00;36.60;30.40;;;;;;5064143;28;9456;-67
2022/07/01 10:14:04;;;;;;;;;28.00;28.00;36.50;30.60;;;;;;5074409;28;8794;-67
2022/07/01 10:16:31;;;;;;;;;26.67;26.67;36.30;31.60;;;;;;5062993;28;8819;-66
2022/07/01 10:18:57;;;;;;;;;25.00;25.00;36.50;31.80;;;;;;5074807;28;8779;-67
2022/07/01 10:21:28;;;;;;;;;28.33;28.00;36.70;32.00;;;;;;5074683;28;9480;-67
2022/07/01 10:24:12;;;;;;;;;25.67;25.67;37.10;31.10;;;;;;5074778;28;8827;-67
2022/07/01 10:26:37;;;;;;;;;25.67;25.67;37.20;30.40;;;;;;5074422;28;8862;-66
2022/07/01 10:29:03;;;;;;;;;26.33;26.33;37.20;31.90;;;;;;5067795;28;8787;-67
2022/07/01 10:31:37;;;;;;;;;13.33;13.33;37.10;30.40;;;;;;5064805;28;8815;-67
2022/07/01 10:34:04;;;;;;;;;17.00;17.00;37.10;30.00;;;;;;5068378;28;8799;-67
2022/07/01 10:36:32;;;;;;;;;25.00;25.00;37.30;30.00;;;;;;5062318;28;8802;-68
2022/07/01 10:39:01;;;;;;;;;21.00;21.00;37.40;30.60;;;;;;5064045;28;8750;-67
2022/07/01 10:41:28;;;;;;;;;25.67;25.67;37.20;30.00;;;;;;5062902;28;8905;-66
2022/07/01 10:43:55;;;;;;;;;24.33;24.33;37.20;31.30;;;;;;5063863;28;8948;-67
2022/07/01 10:47:02;;;;;;;;;24.00;24.00;37.40;30.40;;;;;;5064476;28;11495;-68
2022/07/01 10:49:37;;;;;;;;;27.00;27.00;37.60;30.20;;;;;;5061867;28;8766;-67
2022/07/01 10:52:07;;;;;;;;;24.33;24.33;37.70;30.60;;;;;;5062298;28;9480;-67
2022/07/01 10:54:45;;;;;;;;;24.67;24.67;37.80;31.20;;;;;;5063416;28;11520;-68
2022/07/01 10:57:19;;;;;;;;;24.00;24.00;38.00;30.50;;;;;;5063714;28;11610;-67
2022/07/01 10:59:51;;;;;;;;;21.67;21.67;37.90;29.80;;;;;;5063849;28;8854;-66
2022/07/01 11:02:19;;;;;;;;;20.00;20.00;37.80;30.40;;;;;;5062479;28;8843;-67
2022/07/01 11:04:46;;;;;;;;;24.67;24.67;38.00;30.00;;;;;;5063232;28;12149;-66
2022/07/01 11:07:12;;;;;;;;;23.33;22.67;38.10;29.00;;;;;;5065241;28;11520;-67
2022/07/01 11:09:37;;;;;;;;;22.67;22.67;38.10;28.90;;;;;;5057803;28;11583;-67
2022/07/01 11:12:05;;;;;;;;;20.00;20.00;38.30;28.60;;;;;;5064509;28;8801;-67
2022/07/01 11:14:37;;;;;;;;;26.33;26.33;38.60;28.40;;;;;;5065567;28;8785;-67
2022/07/01 11:17:04;;;;;;;;;25.00;25.00;38.60;28.70;;;;;;5066677;28;8764;-66
2022/07/01 11:19:30;;;;;;;;;24.00;24.00;38.80;28.80;;;;;;5067443;28;8888;-67
2022/07/01 11:21:56;;;;;;;;;25.33;25.33;38.80;28.80;;;;;;5065671;28;8770;-68
2022/07/01 11:24:22;;;;;;;;;23.67;23.67;38.90;28.40;;;;;;5066811;28;11512;-67
2022/07/01 11:26:49;;;;;;;;;26.00;26.00;38.90;29.70;;;;;;5065709;28;8789;-67
2022/07/01 11:29:24;;;;;;;;;26.00;26.00;38.70;29.00;;;;;;5069582;28;8804;-67
2022/07/01 11:31:51;;;;;;;;;24.67;24.67;38.70;29.30;;;;;;5051601;28;9461;-67
2022/07/01 11:34:18;;;;;;;;;29.00;28.67;38.60;29.20;;;;;;5067789;28;8771;-67
2022/07/01 11:39:34;;;;;;;;;25.67;25.67;38.40;29.90;;;;;;5070165;28;8802;-66
2022/07/01 11:42:06;;;;;;;;;28.33;28.33;38.50;30.10;;;;;;5064224;28;8814;-66
2022/07/01 11:44:39;;;;;;;;;32.00;30.67;38.40;29.70;;;;;;5070876;28;8748;-67
2022/07/01 11:47:08;;;;;;;;;28.67;28.33;38.60;29.90;;;;;;5068635;28;8783;-66
2022/07/01 11:49:44;;;;;;;;;32.67;30.67;38.70;29.80;;;;;;5067968;28;8809;-67
2022/07/01 11:52:10;;;;;;;;;30.00;29.67;38.70;30.00;;;;;;5074135;28;8841;-67
2022/07/01 11:54:40;;;;;;;;;31.67;30.67;39.00;30.10;;;;;;5065353;28;8782;-67
2022/07/01 11:57:09;;;;;;;;;28.00;27.67;39.20;30.30;;;;;;5067328;28;8777;-68
2022/07/01 11:59:38;;;;;;;;;32.33;31.00;39.20;29.90;;;;;;5064728;28;8944;-68
2022/07/01 12:02:04;;;;;;;;;26.00;26.00;39.20;30.10;;;;;;5066950;28;8785;-67
2022/07/01 12:04:30;;;;;;;;;28.00;27.67;39.40;29.60;;;;;;5065094;28;8796;-71
2022/07/01 12:06:57;;;;;;;;;28.67;28.33;39.30;29.30;;;;;;5066095;28;8850;-73
2022/07/01 12:09:23;;;;;;;;;32.33;31.67;39.20;29.50;;;;;;5066541;28;8767;-72
2022/07/01 12:11:54;;;;;;;;;24.00;24.00;39.40;29.30;;;;;;5064632;28;8820;-68
2022/07/01 12:14:25;;;;;;;;;31.00;30.00;39.70;26.70;;;;;;5065062;28;11570;-74
2022/07/01 12:16:53;;;;;;;;;29.00;28.67;39.80;29.30;;;;;;5066102;28;8914;-72
2022/07/01 12:19:19;;;;;;;;;29.33;29.00;39.80;29.00;;;;;;5065091;28;8782;-70
2022/07/01 12:21:49;;;;;;;;;30.00;29.67;39.70;29.10;;;;;;5069426;28;8780;-70
2022/07/01 12:24:16;;;;;;;;;30.00;29.67;39.50;28.70;;;;;;5064039;28;8810;-70
2022/07/01 12:27:03;;;;;;;;;25.00;25.00;39.10;28.80;;;;;;5064477;28;8780;-69
2022/07/01 12:29:50;;;;;;;;;25.33;25.33;39.20;28.90;;;;;;5067600;28;8791;-69
2022/07/01 12:32:25;;;;;;;;;27.33;27.33;39.10;29.90;;;;;;5064311;28;8779;-68
2022/07/01 12:34:59;;;;;;;;;29.00;28.67;39.00;29.00;;;;;;5066368;28;8779;-68
2022/07/01 12:37:33;;;;;;;;;25.00;25.00;39.30;29.90;;;;;;5066213;28;8767;-69
2022/07/01 12:40:07;;;;;;;;;27.67;27.67;39.80;29.20;;;;;;5065566;28;8908;-71
2022/07/01 12:42:44;;;;;;;;;26.33;25.67;39.90;28.20;;;;;;5064605;28;8758;-70
2022/07/01 12:45:12;;;;;;;;;27.00;27.00;39.90;28.20;;;;;;5064169;28;8821;-73
2022/07/01 12:47:43;;;;;;;;;24.33;24.33;40.20;28.60;;;;;;5065085;28;8757;-75
2022/07/01 12:50:12;;;;;;;;;33.67;31.67;40.30;28.20;;;;;;5066350;28;8771;-71
2022/07/01 12:52:39;;;;;;;;;31.00;30.00;40.00;28.40;;;;;;5068851;28;9409;-66
2022/07/01 12:55:21;;;;;;;;;32.33;31.00;39.80;28.80;;;;;;5072235;28;8771;-74